Sloman Herakles — V2FY4 — position and weather

sailwx.info

Track history (hours):
 
Tides and Currents Weather Stations Pressure Air Temp Water Temp Dewpoint Dewpoint Depression Visibility Wind Speed Wind Dir Waves Ship Positions

Sloman Herakles

Last reported at 2016-Dec-03 19:33 UTC. Time now 2016-Dec-03 19:41 UTC.
Position N 49°50' W 002°57'.

Length 145 m; draft 7.7 m.

Type: Tanker. MMSI: 305851000.

Date/timePositionNaut miles runAvg speedWind from/ knotsBaromVisibWave heightAir tempDewpointWater temp
2016-Dec-03 19:33N 49°50' W 002°57'1712.2
2016-Dec-03 18:11N 49°40' W 003°18'35111.8
2016-Dec-02 12:32N 45°03' W 008°36'1313.5
2016-Dec-02 11:33N 44°51' W 008°45'33813.0
2016-Dec-01 09:33N 39°17' W 009°56'1313.2
2016-Dec-01 08:33N 39°04' W 009°56'1313.1
2016-Dec-01 07:33N 38°51' W 009°55'1313.1
2016-Dec-01 06:33N 38°38' W 009°55'1413.5
2016-Dec-01 05:33N 38°24' W 009°51'1913.4
2016-Dec-01 04:09N 38°06' W 009°45'813.3
2016-Dec-01 03:33N 37°58' W 009°43'1313.3
2016-Dec-01 02:33N 37°45' W 009°39'22511.9
2016-Nov-30 07:33N 35°59' W 005°31'1212.0
2016-Nov-30 06:33N 36°02' W 005°17'  
2016-Nov-26 04:11N 36°00' W 005°15'1117.1
2016-Nov-26 03:33N 35°57' W 005°28'26011.8
2016-Nov-25 05:33N 38°21' W 010°00'1413.5
2016-Nov-25 04:33N 38°34' W 010°03'1313.4
2016-Nov-25 03:33N 38°47' W 010°05'1313.5
2016-Nov-25 02:34N 39°01' W 010°05'1413.8
2016-Nov-25 01:33N 39°15' W 010°05'  
Track history (hours):
 
Tides and Currents Weather Stations Pressure Air Temp Water Temp Dewpoint Dewpoint Depression Visibility Wind Speed Wind Dir Waves Ship Positions

Sloman Herakles

Last reported at 2016-Dec-03 19:33 UTC. Time now 2016-Dec-03 19:41 UTC.
Position N 49°50' W 002°57'.

Length 145 m; draft 7.7 m.

Type: Tanker. MMSI: 305851000.

Date/timePositionNaut miles runAvg speedWind from/ knotsBaromVisibWave heightAir tempDewpointWater temp
2016-Dec-03 19:33N 49°50' W 002°57'1712.2
2016-Dec-03 18:11N 49°40' W 003°18'35111.8
2016-Dec-02 12:32N 45°03' W 008°36'1313.5
2016-Dec-02 11:33N 44°51' W 008°45'33813.0
2016-Dec-01 09:33N 39°17' W 009°56'1313.2
2016-Dec-01 08:33N 39°04' W 009°56'1313.1
2016-Dec-01 07:33N 38°51' W 009°55'1313.1
2016-Dec-01 06:33N 38°38' W 009°55'1413.5
2016-Dec-01 05:33N 38°24' W 009°51'1913.4
2016-Dec-01 04:09N 38°06' W 009°45'813.3
2016-Dec-01 03:33N 37°58' W 009°43'1313.3
2016-Dec-01 02:33N 37°45' W 009°39'22511.9
2016-Nov-30 07:33N 35°59' W 005°31'1212.0
2016-Nov-30 06:33N 36°02' W 005°17'  
2016-Nov-26 04:11N 36°00' W 005°15'1117.1
2016-Nov-26 03:33N 35°57' W 005°28'26011.8
2016-Nov-25 05:33N 38°21' W 010°00'1413.5
2016-Nov-25 04:33N 38°34' W 010°03'1313.4
2016-Nov-25 03:33N 38°47' W 010°05'1313.5
2016-Nov-25 02:34N 39°01' W 010°05'1413.8
2016-Nov-25 01:33N 39°15' W 010°05'  

Dump ship's entire track history